sensor_id;sensor_type;location;lat;lon;timestamp;P1;durP1;ratioP1;P2;durP2;ratioP2
8268;SDS011;4174;48.304;16.364;2023-02-01T00:01:29;5.25;;;1.70;;
8268;SDS011;4174;48.304;16.364;2023-02-01T00:07:33;5.57;;;1.80;;
8268;SDS011;4174;48.304;16.364;2023-02-01T00:13:38;5.07;;;1.50;;
8268;SDS011;4174;48.304;16.364;2023-02-01T00:19:40;5.50;;;1.73;;
8268;SDS011;4174;48.304;16.364;2023-02-01T00:25:43;4.60;;;1.50;;
8268;SDS011;4174;48.304;16.364;2023-02-01T00:31:49;5.85;;;1.60;;
8268;SDS011;4174;48.304;16.364;2023-02-01T00:37:50;4.60;;;1.45;;
8268;SDS011;4174;48.304;16.364;2023-02-01T00:43:54;4.47;;;1.30;;
8268;SDS011;4174;48.304;16.364;2023-02-01T00:49:56;4.33;;;1.37;;
8268;SDS011;4174;48.304;16.364;2023-02-01T00:56:00;5.83;;;1.40;;
8268;SDS011;4174;48.304;16.364;2023-02-01T01:02:03;4.73;;;1.47;;
8268;SDS011;4174;48.304;16.364;2023-02-01T01:08:07;5.53;;;1.90;;
8268;SDS011;4174;48.304;16.364;2023-02-01T01:14:13;7.27;;;1.77;;
8268;SDS011;4174;48.304;16.364;2023-02-01T01:20:16;5.63;;;1.80;;
8268;SDS011;4174;48.304;16.364;2023-02-01T01:26:21;4.33;;;1.50;;
8268;SDS011;4174;48.304;16.364;2023-02-01T01:32:23;4.72;;;1.67;;
8268;SDS011;4174;48.304;16.364;2023-02-01T01:38:27;5.10;;;1.73;;
8268;SDS011;4174;48.304;16.364;2023-02-01T01:50:55;4.70;;;1.40;;
8268;SDS011;4174;48.304;16.364;2023-02-01T01:57:01;5.43;;;1.50;;
8268;SDS011;4174;48.304;16.364;2023-02-01T02:03:06;5.10;;;1.70;;
8268;SDS011;4174;48.304;16.364;2023-02-01T02:09:08;4.80;;;1.60;;
8268;SDS011;4174;48.304;16.364;2023-02-01T02:15:13;5.03;;;1.60;;
8268;SDS011;4174;48.304;16.364;2023-02-01T02:21:52;5.07;;;1.60;;
8268;SDS011;4174;48.304;16.364;2023-02-01T02:27:48;5.10;;;1.70;;
8268;SDS011;4174;48.304;16.364;2023-02-01T02:34:14;5.50;;;1.80;;
8268;SDS011;4174;48.304;16.364;2023-02-01T02:40:28;5.60;;;1.65;;
8268;SDS011;4174;48.304;16.364;2023-02-01T02:46:38;4.77;;;1.70;;
8268;SDS011;4174;48.304;16.364;2023-02-01T02:52:47;5.20;;;1.80;;
8268;SDS011;4174;48.304;16.364;2023-02-01T02:59:09;6.20;;;1.87;;
8268;SDS011;4174;48.304;16.364;2023-02-01T03:05:16;6.43;;;2.00;;
8268;SDS011;4174;48.304;16.364;2023-02-01T03:11:21;4.82;;;1.60;;
8268;SDS011;4174;48.304;16.364;2023-02-01T03:17:26;4.97;;;1.60;;
8268;SDS011;4174;48.304;16.364;2023-02-01T03:23:28;4.80;;;1.60;;
8268;SDS011;4174;48.304;16.364;2023-02-01T03:29:31;4.83;;;1.60;;
8268;SDS011;4174;48.304;16.364;2023-02-01T03:35:33;5.17;;;1.63;;
8268;SDS011;4174;48.304;16.364;2023-02-01T03:41:46;5.50;;;1.70;;
8268;SDS011;4174;48.304;16.364;2023-02-01T03:47:52;6.10;;;1.90;;
8268;SDS011;4174;48.304;16.364;2023-02-01T03:53:55;5.47;;;1.65;;
8268;SDS011;4174;48.304;16.364;2023-02-01T04:00:05;4.90;;;1.50;;
8268;SDS011;4174;48.304;16.364;2023-02-01T04:06:11;4.70;;;1.60;;
8268;SDS011;4174;48.304;16.364;2023-02-01T04:12:15;6.20;;;1.90;;
8268;SDS011;4174;48.304;16.364;2023-02-01T04:18:19;5.10;;;1.80;;
8268;SDS011;4174;48.304;16.364;2023-02-01T04:24:23;6.03;;;1.83;;
8268;SDS011;4174;48.304;16.364;2023-02-01T04:30:27;6.75;;;1.95;;
8268;SDS011;4174;48.304;16.364;2023-02-01T04:36:30;5.90;;;2.30;;
8268;SDS011;4174;48.304;16.364;2023-02-01T04:42:33;6.33;;;2.40;;
8268;SDS011;4174;48.304;16.364;2023-02-01T04:48:37;6.50;;;2.37;;
8268;SDS011;4174;48.304;16.364;2023-02-01T04:54:40;6.23;;;2.40;;
8268;SDS011;4174;48.304;16.364;2023-02-01T05:00:44;6.37;;;2.30;;
8268;SDS011;4174;48.304;16.364;2023-02-01T05:06:48;6.40;;;2.40;;
8268;SDS011;4174;48.304;16.364;2023-02-01T05:12:51;6.30;;;2.30;;
8268;SDS011;4174;48.304;16.364;2023-02-01T05:19:00;6.27;;;2.00;;
8268;SDS011;4174;48.304;16.364;2023-02-01T05:25:05;6.25;;;2.20;;
8268;SDS011;4174;48.304;16.364;2023-02-01T05:31:10;5.70;;;2.00;;
8268;SDS011;4174;48.304;16.364;2023-02-01T05:37:12;5.47;;;1.93;;
8268;SDS011;4174;48.304;16.364;2023-02-01T05:43:16;6.03;;;2.07;;
8268;SDS011;4174;48.304;16.364;2023-02-01T05:49:20;7.68;;;2.17;;
8268;SDS011;4174;48.304;16.364;2023-02-01T05:55:23;5.87;;;2.20;;
8268;SDS011;4174;48.304;16.364;2023-02-01T06:01:27;6.20;;;2.17;;
8268;SDS011;4174;48.304;16.364;2023-02-01T06:07:30;6.50;;;2.47;;
8268;SDS011;4174;48.304;16.364;2023-02-01T06:13:35;6.57;;;2.27;;
8268;SDS011;4174;48.304;16.364;2023-02-01T06:19:39;6.05;;;2.08;;
8268;SDS011;4174;48.304;16.364;2023-02-01T06:25:43;5.87;;;2.20;;
8268;SDS011;4174;48.304;16.364;2023-02-01T06:31:47;5.80;;;2.20;;
8268;SDS011;4174;48.304;16.364;2023-02-01T06:37:51;6.07;;;2.25;;
8268;SDS011;4174;48.304;16.364;2023-02-01T06:43:55;6.33;;;2.47;;
8268;SDS011;4174;48.304;16.364;2023-02-01T06:49:58;7.23;;;2.37;;
8268;SDS011;4174;48.304;16.364;2023-02-01T06:56:03;6.12;;;2.30;;
8268;SDS011;4174;48.304;16.364;2023-02-01T07:02:10;6.65;;;2.40;;
8268;SDS011;4174;48.304;16.364;2023-02-01T07:08:12;6.70;;;2.20;;
8268;SDS011;4174;48.304;16.364;2023-02-01T07:14:16;5.60;;;2.10;;
8268;SDS011;4174;48.304;16.364;2023-02-01T07:20:25;6.53;;;2.10;;
8268;SDS011;4174;48.304;16.364;2023-02-01T07:26:29;6.43;;;2.20;;
8268;SDS011;4174;48.304;16.364;2023-02-01T07:32:33;5.55;;;2.15;;
8268;SDS011;4174;48.304;16.364;2023-02-01T07:38:36;5.17;;;1.80;;
8268;SDS011;4174;48.304;16.364;2023-02-01T07:44:40;6.40;;;1.90;;
8268;SDS011;4174;48.304;16.364;2023-02-01T07:50:44;5.43;;;1.80;;
8268;SDS011;4174;48.304;16.364;2023-02-01T07:56:48;6.80;;;1.95;;
8268;SDS011;4174;48.304;16.364;2023-02-01T08:02:51;5.75;;;1.98;;
8268;SDS011;4174;48.304;16.364;2023-02-01T08:08:55;5.23;;;1.90;;
8268;SDS011;4174;48.304;16.364;2023-02-01T08:14:58;6.57;;;2.33;;
8268;SDS011;4174;48.304;16.364;2023-02-01T08:21:04;6.80;;;2.10;;
8268;SDS011;4174;48.304;16.364;2023-02-01T08:27:08;6.17;;;2.17;;
8268;SDS011;4174;48.304;16.364;2023-02-01T08:33:12;5.78;;;2.00;;
8268;SDS011;4174;48.304;16.364;2023-02-01T08:39:15;5.77;;;2.20;;
8268;SDS011;4174;48.304;16.364;2023-02-01T08:45:20;7.30;;;2.30;;
8268;SDS011;4174;48.304;16.364;2023-02-01T08:51:22;6.60;;;2.33;;
8268;SDS011;4174;48.304;16.364;2023-02-01T08:57:25;6.28;;;2.33;;
8268;SDS011;4174;48.304;16.364;2023-02-01T09:03:28;7.20;;;2.40;;
8268;SDS011;4174;48.304;16.364;2023-02-01T09:09:32;6.53;;;2.40;;
8268;SDS011;4174;48.304;16.364;2023-02-01T09:15:36;6.25;;;2.47;;
8268;SDS011;4174;48.304;16.364;2023-02-01T09:21:38;6.43;;;2.50;;
8268;SDS011;4174;48.304;16.364;2023-02-01T09:27:43;5.93;;;2.40;;
8268;SDS011;4174;48.304;16.364;2023-02-01T09:33:48;6.82;;;2.47;;
8268;SDS011;4174;48.304;16.364;2023-02-01T09:39:51;6.77;;;2.40;;
8268;SDS011;4174;48.304;16.364;2023-02-01T09:45:59;6.87;;;2.60;;
8268;SDS011;4174;48.304;16.364;2023-02-01T09:52:02;6.83;;;2.40;;
8268;SDS011;4174;48.304;16.364;2023-02-01T09:58:06;6.93;;;2.40;;
8268;SDS011;4174;48.304;16.364;2023-02-01T10:04:14;6.25;;;2.37;;
8268;SDS011;4174;48.304;16.364;2023-02-01T10:10:21;7.90;;;2.60;;
8268;SDS011;4174;48.304;16.364;2023-02-01T10:16:37;4.40;;;1.60;;
8268;SDS011;4174;48.304;16.364;2023-02-01T10:22:42;5.55;;;1.75;;
8268;SDS011;4174;48.304;16.364;2023-02-01T10:28:47;5.00;;;1.60;;
8268;SDS011;4174;48.304;16.364;2023-02-01T10:34:57;4.80;;;1.60;;
8268;SDS011;4174;48.304;16.364;2023-02-01T10:41:03;5.30;;;1.40;;
8268;SDS011;4174;48.304;16.364;2023-02-01T10:47:05;5.50;;;1.40;;
8268;SDS011;4174;48.304;16.364;2023-02-01T10:53:12;5.20;;;1.60;;
8268;SDS011;4174;48.304;16.364;2023-02-01T10:59:18;5.17;;;1.40;;
8268;SDS011;4174;48.304;16.364;2023-02-01T11:05:20;4.40;;;1.40;;
8268;SDS011;4174;48.304;16.364;2023-02-01T11:11:23;4.40;;;1.30;;
8268;SDS011;4174;48.304;16.364;2023-02-01T11:17:28;5.22;;;1.52;;
8268;SDS011;4174;48.304;16.364;2023-02-01T11:23:29;5.83;;;1.50;;
8268;SDS011;4174;48.304;16.364;2023-02-01T11:29:36;5.45;;;1.77;;
8268;SDS011;4174;48.304;16.364;2023-02-01T11:35:40;4.97;;;1.60;;
8268;SDS011;4174;48.304;16.364;2023-02-01T11:42:00;5.37;;;1.80;;
8268;SDS011;4174;48.304;16.364;2023-02-01T11:48:09;4.68;;;1.40;;
8268;SDS011;4174;48.304;16.364;2023-02-01T11:54:16;6.90;;;1.70;;
8268;SDS011;4174;48.304;16.364;2023-02-01T12:00:40;5.10;;;1.65;;
8268;SDS011;4174;48.304;16.364;2023-02-01T12:08:18;4.77;;;1.27;;
8268;SDS011;4174;48.304;16.364;2023-02-01T12:13:55;4.72;;;1.20;;
8268;SDS011;4174;48.304;16.364;2023-02-01T12:32:43;5.57;;;1.50;;
8268;SDS011;4174;48.304;16.364;2023-02-01T12:38:46;6.30;;;1.97;;
8268;SDS011;4174;48.304;16.364;2023-02-01T12:45:02;5.95;;;2.22;;
8268;SDS011;4174;48.304;16.364;2023-02-01T12:51:15;5.90;;;1.60;;
8268;SDS011;4174;48.304;16.364;2023-02-01T12:57:22;5.60;;;1.80;;
8268;SDS011;4174;48.304;16.364;2023-02-01T13:03:34;4.40;;;1.27;;
8268;SDS011;4174;48.304;16.364;2023-02-01T13:09:41;4.40;;;1.10;;
8268;SDS011;4174;48.304;16.364;2023-02-01T13:15:46;5.03;;;1.00;;
8268;SDS011;4174;48.304;16.364;2023-02-01T13:21:49;4.70;;;1.10;;
8268;SDS011;4174;48.304;16.364;2023-02-01T13:27:53;5.17;;;1.20;;
8268;SDS011;4174;48.304;16.364;2023-02-01T13:40:45;4.12;;;1.12;;
8268;SDS011;4174;48.304;16.364;2023-02-01T13:46:48;4.10;;;1.10;;
8268;SDS011;4174;48.304;16.364;2023-02-01T13:52:56;5.18;;;1.05;;
8268;SDS011;4174;48.304;16.364;2023-02-01T13:59:00;5.35;;;1.10;;
8268;SDS011;4174;48.304;16.364;2023-02-01T14:11:55;3.47;;;0.80;;
8268;SDS011;4174;48.304;16.364;2023-02-01T14:17:57;4.20;;;1.10;;
8268;SDS011;4174;48.304;16.364;2023-02-01T14:24:04;4.73;;;1.20;;
8268;SDS011;4174;48.304;16.364;2023-02-01T14:30:23;4.68;;;1.20;;
8268;SDS011;4174;48.304;16.364;2023-02-01T14:36:27;4.33;;;1.10;;
8268;SDS011;4174;48.304;16.364;2023-02-01T14:42:37;4.20;;;1.10;;
8268;SDS011;4174;48.304;16.364;2023-02-01T14:48:42;3.67;;;1.00;;
8268;SDS011;4174;48.304;16.364;2023-02-01T14:54:46;3.87;;;0.82;;
8268;SDS011;4174;48.304;16.364;2023-02-01T15:00:49;3.83;;;0.80;;
8268;SDS011;4174;48.304;16.364;2023-02-01T15:06:52;3.33;;;0.70;;
8268;SDS011;4174;48.304;16.364;2023-02-01T15:12:55;3.20;;;0.60;;
8268;SDS011;4174;48.304;16.364;2023-02-01T15:19:08;3.00;;;0.67;;
8268;SDS011;4174;48.304;16.364;2023-02-01T15:37:32;4.40;;;0.80;;
8268;SDS011;4174;48.304;16.364;2023-02-01T15:43:37;4.90;;;1.30;;
8268;SDS011;4174;48.304;16.364;2023-02-01T15:49:39;5.30;;;1.25;;
8268;SDS011;4174;48.304;16.364;2023-02-01T15:55:41;5.68;;;1.50;;
8268;SDS011;4174;48.304;16.364;2023-02-01T16:01:44;4.55;;;1.10;;
8268;SDS011;4174;48.304;16.364;2023-02-01T16:07:54;4.70;;;1.10;;
8268;SDS011;4174;48.304;16.364;2023-02-01T16:13:50;6.43;;;1.27;;
8268;SDS011;4174;48.304;16.364;2023-02-01T16:19:54;5.43;;;1.35;;
8268;SDS011;4174;48.304;16.364;2023-02-01T16:25:57;5.60;;;1.40;;
8268;SDS011;4174;48.304;16.364;2023-02-01T16:32:02;6.00;;;1.50;;
8268;SDS011;4174;48.304;16.364;2023-02-01T16:38:09;6.37;;;1.60;;
8268;SDS011;4174;48.304;16.364;2023-02-01T16:44:12;6.50;;;1.30;;
8268;SDS011;4174;48.304;16.364;2023-02-01T16:50:16;5.32;;;1.48;;
8268;SDS011;4174;48.304;16.364;2023-02-01T16:56:23;5.82;;;1.50;;
8268;SDS011;4174;48.304;16.364;2023-02-01T17:02:24;6.70;;;1.70;;
8268;SDS011;4174;48.304;16.364;2023-02-01T17:08:31;7.20;;;1.90;;
8268;SDS011;4174;48.304;16.364;2023-02-01T17:14:34;6.10;;;1.90;;
8268;SDS011;4174;48.304;16.364;2023-02-01T17:20:35;6.35;;;1.50;;
8268;SDS011;4174;48.304;16.364;2023-02-01T17:26:39;7.80;;;1.80;;
8268;SDS011;4174;48.304;16.364;2023-02-01T17:32:41;5.87;;;1.80;;
8268;SDS011;4174;48.304;16.364;2023-02-01T17:38:44;5.72;;;1.87;;
8268;SDS011;4174;48.304;16.364;2023-02-01T17:44:49;5.90;;;2.00;;
8268;SDS011;4174;48.304;16.364;2023-02-01T17:50:51;7.15;;;2.17;;
8268;SDS011;4174;48.304;16.364;2023-02-01T17:56:55;7.40;;;2.40;;
8268;SDS011;4174;48.304;16.364;2023-02-01T18:02:59;6.68;;;2.00;;
8268;SDS011;4174;48.304;16.364;2023-02-01T18:09:03;6.33;;;1.97;;
8268;SDS011;4174;48.304;16.364;2023-02-01T18:15:11;6.33;;;2.10;;
8268;SDS011;4174;48.304;16.364;2023-02-01T18:21:19;8.10;;;2.40;;
8268;SDS011;4174;48.304;16.364;2023-02-01T18:27:21;6.90;;;2.30;;
8268;SDS011;4174;48.304;16.364;2023-02-01T18:33:24;6.93;;;2.13;;
8268;SDS011;4174;48.304;16.364;2023-02-01T18:39:28;8.33;;;1.97;;
8268;SDS011;4174;48.304;16.364;2023-02-01T18:45:34;6.25;;;1.98;;
8268;SDS011;4174;48.304;16.364;2023-02-01T18:51:39;6.57;;;2.08;;
8268;SDS011;4174;48.304;16.364;2023-02-01T18:57:44;9.13;;;2.83;;
8268;SDS011;4174;48.304;16.364;2023-02-01T19:03:48;9.35;;;2.72;;
8268;SDS011;4174;48.304;16.364;2023-02-01T19:09:50;7.43;;;2.50;;
8268;SDS011;4174;48.304;16.364;2023-02-01T19:15:54;7.28;;;2.35;;
8268;SDS011;4174;48.304;16.364;2023-02-01T19:21:57;7.68;;;1.77;;
8268;SDS011;4174;48.304;16.364;2023-02-01T19:28:01;7.53;;;2.40;;
8268;SDS011;4174;48.304;16.364;2023-02-01T19:34:04;8.03;;;2.27;;
8268;SDS011;4174;48.304;16.364;2023-02-01T19:40:09;7.00;;;2.10;;
8268;SDS011;4174;48.304;16.364;2023-02-01T19:46:13;7.32;;;2.00;;
8268;SDS011;4174;48.304;16.364;2023-02-01T19:52:18;7.13;;;2.00;;
8268;SDS011;4174;48.304;16.364;2023-02-01T19:58:23;5.85;;;1.85;;
8268;SDS011;4174;48.304;16.364;2023-02-01T20:04:28;7.50;;;2.30;;
8268;SDS011;4174;48.304;16.364;2023-02-01T20:10:33;5.03;;;1.63;;
8268;SDS011;4174;48.304;16.364;2023-02-01T20:16:37;6.50;;;1.77;;
8268;SDS011;4174;48.304;16.364;2023-02-01T20:22:40;6.23;;;1.73;;
8268;SDS011;4174;48.304;16.364;2023-02-01T20:28:44;5.50;;;1.60;;
8268;SDS011;4174;48.304;16.364;2023-02-01T20:34:48;6.70;;;1.75;;
8268;SDS011;4174;48.304;16.364;2023-02-01T20:40:50;8.00;;;1.70;;
8268;SDS011;4174;48.304;16.364;2023-02-01T20:46:54;6.30;;;1.60;;
8268;SDS011;4174;48.304;16.364;2023-02-01T20:52:57;6.60;;;1.70;;
8268;SDS011;4174;48.304;16.364;2023-02-01T20:59:01;6.60;;;1.80;;
8268;SDS011;4174;48.304;16.364;2023-02-01T21:05:05;5.93;;;1.70;;
8268;SDS011;4174;48.304;16.364;2023-02-01T21:11:11;6.33;;;1.70;;
8268;SDS011;4174;48.304;16.364;2023-02-01T21:17:13;5.20;;;1.53;;
8268;SDS011;4174;48.304;16.364;2023-02-01T21:23:17;6.40;;;1.67;;
8268;SDS011;4174;48.304;16.364;2023-02-01T21:29:20;6.47;;;1.73;;
8268;SDS011;4174;48.304;16.364;2023-02-01T21:35:24;7.73;;;1.40;;
8268;SDS011;4174;48.304;16.364;2023-02-01T21:41:27;5.78;;;1.60;;
8268;SDS011;4174;48.304;16.364;2023-02-01T21:47:35;7.85;;;1.90;;
8268;SDS011;4174;48.304;16.364;2023-02-01T21:53:40;7.40;;;1.60;;
8268;SDS011;4174;48.304;16.364;2023-02-01T21:59:43;7.60;;;1.62;;
8268;SDS011;4174;48.304;16.364;2023-02-01T22:05:48;5.47;;;1.30;;
8268;SDS011;4174;48.304;16.364;2023-02-01T22:11:51;7.20;;;1.70;;
8268;SDS011;4174;48.304;16.364;2023-02-01T22:17:52;6.17;;;1.70;;
8268;SDS011;4174;48.304;16.364;2023-02-01T22:23:56;6.32;;;1.80;;
8268;SDS011;4174;48.304;16.364;2023-02-01T22:29:58;7.37;;;1.45;;
8268;SDS011;4174;48.304;16.364;2023-02-01T22:36:02;4.87;;;1.40;;
8268;SDS011;4174;48.304;16.364;2023-02-01T22:42:06;6.70;;;1.60;;
8268;SDS011;4174;48.304;16.364;2023-02-01T22:48:08;6.93;;;1.53;;
8268;SDS011;4174;48.304;16.364;2023-02-01T22:54:14;4.20;;;1.00;;
8268;SDS011;4174;48.304;16.364;2023-02-01T23:00:18;3.83;;;0.50;;
8268;SDS011;4174;48.304;16.364;2023-02-01T23:06:22;1.40;;;0.30;;
8268;SDS011;4174;48.304;16.364;2023-02-01T23:12:25;2.25;;;0.30;;
8268;SDS011;4174;48.304;16.364;2023-02-01T23:18:29;0.90;;;0.20;;
8268;SDS011;4174;48.304;16.364;2023-02-01T23:24:33;4.30;;;0.40;;
8268;SDS011;4174;48.304;16.364;2023-02-01T23:30:36;3.23;;;0.50;;
8268;SDS011;4174;48.304;16.364;2023-02-01T23:36:41;4.45;;;0.50;;
8268;SDS011;4174;48.304;16.364;2023-02-01T23:42:46;2.53;;;0.40;;
8268;SDS011;4174;48.304;16.364;2023-02-01T23:48:49;2.07;;;0.30;;
8268;SDS011;4174;48.304;16.364;2023-02-01T23:54:53;3.10;;;0.30;;
